sensor_id;sensor_type;location;lat;lon;timestamp;pressure;altitude;pressure_sealevel;temperature;humidity
75933;BME280;64803;52.356;5.310;2023-06-14T00:00:14;101844.13;;;17.10;100.00
75933;BME280;64803;52.356;5.310;2023-06-14T00:02:40;101839.09;;;17.07;100.00
75933;BME280;64803;52.356;5.310;2023-06-14T00:05:07;101834.69;;;17.06;100.00
75933;BME280;64803;52.356;5.310;2023-06-14T00:07:36;101837.16;;;17.01;100.00
75933;BME280;64803;52.356;5.310;2023-06-14T00:10:03;101836.06;;;16.95;100.00
75933;BME280;64803;52.356;5.310;2023-06-14T00:12:30;101841.44;;;16.88;100.00
75933;BME280;64803;52.356;5.310;2023-06-14T00:14:57;101841.75;;;16.79;100.00
75933;BME280;64803;52.356;5.310;2023-06-14T00:17:23;101831.88;;;16.71;100.00
75933;BME280;64803;52.356;5.310;2023-06-14T00:19:52;101836.25;;;16.72;100.00
75933;BME280;64803;52.356;5.310;2023-06-14T00:22:18;101840.78;;;16.65;100.00
75933;BME280;64803;52.356;5.310;2023-06-14T00:24:44;101847.00;;;16.59;100.00
75933;BME280;64803;52.356;5.310;2023-06-14T00:27:10;101846.22;;;16.65;100.00
75933;BME280;64803;52.356;5.310;2023-06-14T00:29:36;101850.78;;;16.65;100.00
75933;BME280;64803;52.356;5.310;2023-06-14T00:32:04;101854.28;;;16.59;100.00
75933;BME280;64803;52.356;5.310;2023-06-14T00:34:30;101849.63;;;16.53;100.00
75933;BME280;64803;52.356;5.310;2023-06-14T00:36:56;101843.44;;;16.44;100.00
75933;BME280;64803;52.356;5.310;2023-06-14T00:39:22;101842.78;;;16.42;100.00
75933;BME280;64803;52.356;5.310;2023-06-14T00:41:48;101845.44;;;16.36;100.00
75933;BME280;64803;52.356;5.310;2023-06-14T00:44:16;101836.59;;;16.27;100.00
75933;BME280;64803;52.356;5.310;2023-06-14T00:46:42;101848.81;;;16.23;100.00
75933;BME280;64803;52.356;5.310;2023-06-14T00:49:10;101844.38;;;16.16;100.00
75933;BME280;64803;52.356;5.310;2023-06-14T00:51:36;101825.81;;;15.98;100.00
75933;BME280;64803;52.356;5.310;2023-06-14T00:54:03;101841.88;;;16.14;100.00
75933;BME280;64803;52.356;5.310;2023-06-14T00:56:29;101852.25;;;16.11;100.00
75933;BME280;64803;52.356;5.310;2023-06-14T00:58:56;101849.22;;;16.06;100.00
75933;BME280;64803;52.356;5.310;2023-06-14T01:01:23;101846.63;;;15.98;100.00
75933;BME280;64803;52.356;5.310;2023-06-14T01:03:50;101852.44;;;15.95;100.00
75933;BME280;64803;52.356;5.310;2023-06-14T01:09:15;101850.00;;;15.85;100.00
75933;BME280;64803;52.356;5.310;2023-06-14T01:12:47;101857.22;;;15.78;100.00
75933;BME280;64803;52.356;5.310;2023-06-14T01:14:57;101850.84;;;15.71;100.00
75933;BME280;64803;52.356;5.310;2023-06-14T01:17:25;101847.59;;;15.61;100.00
75933;BME280;64803;52.356;5.310;2023-06-14T01:19:52;101848.63;;;15.60;100.00
75933;BME280;64803;52.356;5.310;2023-06-14T01:22:26;101853.94;;;15.53;100.00
75933;BME280;64803;52.356;5.310;2023-06-14T01:24:54;101851.50;;;15.44;100.00
75933;BME280;64803;52.356;5.310;2023-06-14T01:27:23;101854.09;;;15.37;100.00
75933;BME280;64803;52.356;5.310;2023-06-14T01:29:54;101845.50;;;15.34;100.00
75933;BME280;64803;52.356;5.310;2023-06-14T01:32:26;101853.25;;;15.37;100.00
75933;BME280;64803;52.356;5.310;2023-06-14T01:34:54;101849.50;;;15.38;100.00
75933;BME280;64803;52.356;5.310;2023-06-14T01:37:21;101853.91;;;15.39;100.00
75933;BME280;64803;52.356;5.310;2023-06-14T01:39:48;101855.09;;;15.36;100.00
75933;BME280;64803;52.356;5.310;2023-06-14T01:42:18;101849.41;;;15.31;100.00
75933;BME280;64803;52.356;5.310;2023-06-14T01:44:46;101853.00;;;15.24;100.00
75933;BME280;64803;52.356;5.310;2023-06-14T01:47:14;101849.69;;;15.22;100.00
75933;BME280;64803;52.356;5.310;2023-06-14T01:49:40;101855.22;;;15.06;100.00
75933;BME280;64803;52.356;5.310;2023-06-14T01:52:08;101862.22;;;15.00;100.00
75933;BME280;64803;52.356;5.310;2023-06-14T01:54:36;101857.34;;;14.96;100.00
75933;BME280;64803;52.356;5.310;2023-06-14T01:57:08;101859.91;;;14.89;100.00
75933;BME280;64803;52.356;5.310;2023-06-14T01:59:34;101859.81;;;14.83;100.00
75933;BME280;64803;52.356;5.310;2023-06-14T02:02:02;101862.13;;;14.71;100.00
75933;BME280;64803;52.356;5.310;2023-06-14T02:04:32;101863.38;;;14.60;100.00
75933;BME280;64803;52.356;5.310;2023-06-14T02:06:58;101864.56;;;14.58;100.00
75933;BME280;64803;52.356;5.310;2023-06-14T02:09:24;101858.97;;;14.59;100.00
75933;BME280;64803;52.356;5.310;2023-06-14T02:11:53;101865.03;;;14.61;100.00
75933;BME280;64803;52.356;5.310;2023-06-14T02:14:20;101841.28;;;14.49;100.00
75933;BME280;64803;52.356;5.310;2023-06-14T02:16:46;101858.00;;;14.52;100.00
75933;BME280;64803;52.356;5.310;2023-06-14T02:19:16;101850.44;;;14.48;100.00
75933;BME280;64803;52.356;5.310;2023-06-14T02:21:42;101857.00;;;14.53;100.00
75933;BME280;64803;52.356;5.310;2023-06-14T02:24:09;101820.81;;;14.32;100.00
75933;BME280;64803;52.356;5.310;2023-06-14T02:26:36;101862.03;;;14.56;100.00
75933;BME280;64803;52.356;5.310;2023-06-14T02:29:05;101866.78;;;14.54;100.00
75933;BME280;64803;52.356;5.310;2023-06-14T02:31:32;101853.69;;;14.43;100.00
75933;BME280;64803;52.356;5.310;2023-06-14T02:33:58;101865.88;;;14.39;100.00
75933;BME280;64803;52.356;5.310;2023-06-14T02:36:24;101857.28;;;14.36;100.00
75933;BME280;64803;52.356;5.310;2023-06-14T02:38:50;101863.69;;;14.35;100.00
75933;BME280;64803;52.356;5.310;2023-06-14T02:41:16;101868.09;;;14.36;100.00
75933;BME280;64803;52.356;5.310;2023-06-14T02:43:42;101856.78;;;14.32;100.00
75933;BME280;64803;52.356;5.310;2023-06-14T02:46:09;101863.03;;;14.33;100.00
75933;BME280;64803;52.356;5.310;2023-06-14T02:48:35;101856.28;;;14.29;100.00
75933;BME280;64803;52.356;5.310;2023-06-14T02:51:01;101863.88;;;14.25;100.00
75933;BME280;64803;52.356;5.310;2023-06-14T02:53:26;101855.97;;;14.16;100.00
75933;BME280;64803;52.356;5.310;2023-06-14T02:55:53;101859.16;;;14.19;100.00
75933;BME280;64803;52.356;5.310;2023-06-14T02:58:21;101871.88;;;14.19;100.00
75933;BME280;64803;52.356;5.310;2023-06-14T03:00:47;101869.66;;;14.14;100.00
75933;BME280;64803;52.356;5.310;2023-06-14T03:03:13;101873.09;;;14.08;100.00
75933;BME280;64803;52.356;5.310;2023-06-14T03:05:48;101876.78;;;14.07;100.00
75933;BME280;64803;52.356;5.310;2023-06-14T03:08:18;101872.59;;;14.05;100.00
75933;BME280;64803;52.356;5.310;2023-06-14T03:10:47;101876.13;;;14.05;100.00
75933;BME280;64803;52.356;5.310;2023-06-14T03:13:13;101845.16;;;13.85;100.00
75933;BME280;64803;52.356;5.310;2023-06-14T03:15:39;101886.09;;;14.05;100.00
75933;BME280;64803;52.356;5.310;2023-06-14T03:18:10;101888.13;;;14.03;100.00
75933;BME280;64803;52.356;5.310;2023-06-14T03:20:38;101885.63;;;14.01;100.00
75933;BME280;64803;52.356;5.310;2023-06-14T03:23:06;101891.53;;;13.97;100.00
75933;BME280;64803;52.356;5.310;2023-06-14T03:25:32;101900.84;;;13.94;100.00
75933;BME280;64803;52.356;5.310;2023-06-14T03:28:01;101897.47;;;13.92;100.00
75933;BME280;64803;52.356;5.310;2023-06-14T03:30:29;101894.75;;;13.92;100.00
75933;BME280;64803;52.356;5.310;2023-06-14T03:32:56;101898.50;;;13.91;100.00
75933;BME280;64803;52.356;5.310;2023-06-14T03:35:24;101898.63;;;13.90;100.00
75933;BME280;64803;52.356;5.310;2023-06-14T03:37:50;101898.00;;;13.88;100.00
75933;BME280;64803;52.356;5.310;2023-06-14T03:40:18;101903.53;;;13.86;100.00
75933;BME280;64803;52.356;5.310;2023-06-14T03:42:53;101912.66;;;13.85;100.00
75933;BME280;64803;52.356;5.310;2023-06-14T03:45:19;101914.03;;;13.81;100.00
75933;BME280;64803;52.356;5.310;2023-06-14T03:47:47;101912.34;;;13.80;100.00
75933;BME280;64803;52.356;5.310;2023-06-14T03:50:13;101911.66;;;13.86;100.00
75933;BME280;64803;52.356;5.310;2023-06-14T03:52:39;101903.78;;;14.15;100.00
75933;BME280;64803;52.356;5.310;2023-06-14T03:55:08;101919.28;;;14.60;100.00
75933;BME280;64803;52.356;5.310;2023-06-14T03:57:34;101915.63;;;14.76;100.00
75933;BME280;64803;52.356;5.310;2023-06-14T04:00:00;101925.09;;;14.80;100.00
75933;BME280;64803;52.356;5.310;2023-06-14T04:02:27;101918.94;;;14.86;100.00
75933;BME280;64803;52.356;5.310;2023-06-14T04:04:56;101922.97;;;14.90;100.00
75933;BME280;64803;52.356;5.310;2023-06-14T04:07:22;101924.81;;;14.66;100.00
75933;BME280;64803;52.356;5.310;2023-06-14T04:09:52;101931.88;;;14.76;100.00
75933;BME280;64803;52.356;5.310;2023-06-14T04:12:18;101936.38;;;14.60;100.00
75933;BME280;64803;52.356;5.310;2023-06-14T04:14:44;101939.00;;;14.38;100.00
75933;BME280;64803;52.356;5.310;2023-06-14T04:17:11;101929.06;;;14.30;100.00
75933;BME280;64803;52.356;5.310;2023-06-14T04:19:38;101937.53;;;14.27;100.00
75933;BME280;64803;52.356;5.310;2023-06-14T04:22:04;101935.81;;;14.34;100.00
75933;BME280;64803;52.356;5.310;2023-06-14T04:24:33;101938.16;;;14.37;100.00
75933;BME280;64803;52.356;5.310;2023-06-14T04:27:01;101945.41;;;14.45;100.00
75933;BME280;64803;52.356;5.310;2023-06-14T04:29:28;101943.69;;;14.52;100.00
75933;BME280;64803;52.356;5.310;2023-06-14T04:32:02;101941.09;;;14.58;100.00
75933;BME280;64803;52.356;5.310;2023-06-14T04:34:28;101947.84;;;14.62;100.00
75933;BME280;64803;52.356;5.310;2023-06-14T04:36:58;101896.94;;;14.43;100.00
75933;BME280;64803;52.356;5.310;2023-06-14T04:39:45;101949.06;;;14.83;100.00
75933;BME280;64803;52.356;5.310;2023-06-14T04:42:11;101946.28;;;14.91;100.00
75933;BME280;64803;52.356;5.310;2023-06-14T04:44:43;101961.13;;;15.03;100.00
75933;BME280;64803;52.356;5.310;2023-06-14T04:47:10;101955.34;;;15.06;100.00
75933;BME280;64803;52.356;5.310;2023-06-14T04:49:42;101956.59;;;15.18;100.00
75933;BME280;64803;52.356;5.310;2023-06-14T04:52:08;101932.31;;;15.10;100.00
75933;BME280;64803;52.356;5.310;2023-06-14T04:54:40;101958.13;;;15.35;100.00
75933;BME280;64803;52.356;5.310;2023-06-14T04:57:10;101946.63;;;15.41;100.00
75933;BME280;64803;52.356;5.310;2023-06-14T04:59:40;101953.94;;;15.55;100.00
75933;BME280;64803;52.356;5.310;2023-06-14T05:02:07;101957.94;;;15.59;100.00
75933;BME280;64803;52.356;5.310;2023-06-14T05:04:34;101964.88;;;15.61;100.00
75933;BME280;64803;52.356;5.310;2023-06-14T05:07:07;101936.00;;;15.54;100.00
75933;BME280;64803;52.356;5.310;2023-06-14T05:09:34;101965.56;;;15.78;100.00
75933;BME280;64803;52.356;5.310;2023-06-14T05:12:00;101961.06;;;15.85;100.00
75933;BME280;64803;52.356;5.310;2023-06-14T05:14:26;101949.50;;;15.91;100.00
75933;BME280;64803;52.356;5.310;2023-06-14T05:16:52;101962.22;;;16.05;100.00
75933;BME280;64803;52.356;5.310;2023-06-14T05:19:19;101966.22;;;16.09;100.00
75933;BME280;64803;52.356;5.310;2023-06-14T05:21:47;101965.22;;;16.10;100.00
75933;BME280;64803;52.356;5.310;2023-06-14T05:24:14;101970.81;;;16.23;100.00
75933;BME280;64803;52.356;5.310;2023-06-14T05:26:41;101969.69;;;16.32;100.00
75933;BME280;64803;52.356;5.310;2023-06-14T05:29:07;101957.19;;;16.31;100.00
75933;BME280;64803;52.356;5.310;2023-06-14T05:31:33;101969.13;;;16.37;100.00
75933;BME280;64803;52.356;5.310;2023-06-14T05:33:59;101964.44;;;16.45;100.00
75933;BME280;64803;52.356;5.310;2023-06-14T05:36:25;101969.13;;;16.51;100.00
75933;BME280;64803;52.356;5.310;2023-06-14T05:38:54;101971.75;;;16.59;100.00
75933;BME280;64803;52.356;5.310;2023-06-14T05:41:28;101976.41;;;16.65;100.00
75933;BME280;64803;52.356;5.310;2023-06-14T05:43:55;101975.00;;;16.69;100.00
75933;BME280;64803;52.356;5.310;2023-06-14T05:46:22;101979.50;;;16.77;100.00
75933;BME280;64803;52.356;5.310;2023-06-14T05:48:51;101976.66;;;16.85;100.00
75933;BME280;64803;52.356;5.310;2023-06-14T05:51:17;101984.19;;;16.89;100.00
75933;BME280;64803;52.356;5.310;2023-06-14T05:53:47;101981.94;;;16.93;100.00
75933;BME280;64803;52.356;5.310;2023-06-14T05:56:13;101989.59;;;17.04;100.00
75933;BME280;64803;52.356;5.310;2023-06-14T05:58:40;101989.84;;;17.09;100.00
75933;BME280;64803;52.356;5.310;2023-06-14T06:01:06;101996.66;;;17.20;100.00
75933;BME280;64803;52.356;5.310;2023-06-14T06:03:32;101999.63;;;17.25;100.00
75933;BME280;64803;52.356;5.310;2023-06-14T06:05:58;101997.63;;;17.33;100.00
75933;BME280;64803;52.356;5.310;2023-06-14T06:08:26;102000.78;;;17.37;100.00
75933;BME280;64803;52.356;5.310;2023-06-14T06:10:52;101997.31;;;17.43;100.00
75933;BME280;64803;52.356;5.310;2023-06-14T06:13:18;101994.19;;;17.46;100.00
75933;BME280;64803;52.356;5.310;2023-06-14T06:15:44;102001.72;;;17.65;100.00
75933;BME280;64803;52.356;5.310;2023-06-14T06:18:11;101999.13;;;17.78;100.00
75933;BME280;64803;52.356;5.310;2023-06-14T06:20:38;102004.00;;;17.89;100.00
75933;BME280;64803;52.356;5.310;2023-06-14T06:23:04;102011.19;;;18.03;100.00
75933;BME280;64803;52.356;5.310;2023-06-14T06:25:30;102010.88;;;18.13;100.00
75933;BME280;64803;52.356;5.310;2023-06-14T06:27:57;102011.38;;;18.29;100.00
75933;BME280;64803;52.356;5.310;2023-06-14T06:30:24;102009.00;;;18.47;100.00
75933;BME280;64803;52.356;5.310;2023-06-14T06:32:51;101999.41;;;18.51;100.00
75933;BME280;64803;52.356;5.310;2023-06-14T06:35:17;102012.41;;;18.56;100.00
75933;BME280;64803;52.356;5.310;2023-06-14T06:37:43;102013.72;;;18.66;100.00
75933;BME280;64803;52.356;5.310;2023-06-14T06:40:09;102017.50;;;18.72;100.00
75933;BME280;64803;52.356;5.310;2023-06-14T06:42:36;102010.66;;;18.82;100.00
75933;BME280;64803;52.356;5.310;2023-06-14T06:45:04;102014.88;;;18.91;100.00
75933;BME280;64803;52.356;5.310;2023-06-14T06:47:31;102019.06;;;19.00;100.00
75933;BME280;64803;52.356;5.310;2023-06-14T06:49:57;102017.19;;;19.07;100.00
75933;BME280;64803;52.356;5.310;2023-06-14T06:52:23;102026.44;;;19.20;100.00
75933;BME280;64803;52.356;5.310;2023-06-14T06:54:52;102025.69;;;19.32;100.00
75933;BME280;64803;52.356;5.310;2023-06-14T06:57:21;102018.16;;;19.41;100.00
75933;BME280;64803;52.356;5.310;2023-06-14T06:59:49;102026.78;;;19.51;100.00
75933;BME280;64803;52.356;5.310;2023-06-14T07:02:16;102030.94;;;19.60;100.00
75933;BME280;64803;52.356;5.310;2023-06-14T07:04:42;102023.84;;;19.72;100.00
75933;BME280;64803;52.356;5.310;2023-06-14T07:07:09;102027.41;;;19.92;100.00
75933;BME280;64803;52.356;5.310;2023-06-14T07:09:38;102025.75;;;19.97;98.23
75933;BME280;64803;52.356;5.310;2023-06-14T07:12:04;102032.00;;;20.11;100.00
75933;BME280;64803;52.356;5.310;2023-06-14T07:14:30;102034.78;;;20.24;95.66
75933;BME280;64803;52.356;5.310;2023-06-14T07:16:56;102030.75;;;20.33;92.71
75933;BME280;64803;52.356;5.310;2023-06-14T07:19:22;102026.72;;;20.55;96.13
75933;BME280;64803;52.356;5.310;2023-06-14T07:21:48;102033.81;;;20.69;92.04
75933;BME280;64803;52.356;5.310;2023-06-14T07:24:14;102035.22;;;20.78;90.04
75933;BME280;64803;52.356;5.310;2023-06-14T07:26:41;102041.31;;;20.80;86.95
75933;BME280;64803;52.356;5.310;2023-06-14T07:29:07;102037.31;;;20.83;81.38
75933;BME280;64803;52.356;5.310;2023-06-14T07:31:33;102048.66;;;20.86;87.95
75933;BME280;64803;52.356;5.310;2023-06-14T07:33:59;102046.28;;;20.96;83.63
75933;BME280;64803;52.356;5.310;2023-06-14T07:36:24;102054.81;;;21.19;86.47
75933;BME280;64803;52.356;5.310;2023-06-14T07:38:50;102030.88;;;21.15;78.29
75933;BME280;64803;52.356;5.310;2023-06-14T07:41:16;102050.56;;;21.23;74.03
75933;BME280;64803;52.356;5.310;2023-06-14T07:43:42;102046.97;;;21.30;76.17
75933;BME280;64803;52.356;5.310;2023-06-14T07:46:09;102048.84;;;21.36;74.56
75933;BME280;64803;52.356;5.310;2023-06-14T07:48:35;102052.56;;;21.41;76.74
75933;BME280;64803;52.356;5.310;2023-06-14T07:51:01;102053.75;;;21.58;76.90
75933;BME280;64803;52.356;5.310;2023-06-14T07:53:27;102049.47;;;21.69;74.63
75933;BME280;64803;52.356;5.310;2023-06-14T07:55:53;102057.75;;;21.87;78.55
75933;BME280;64803;52.356;5.310;2023-06-14T07:58:19;102047.53;;;22.00;73.82
75933;BME280;64803;52.356;5.310;2023-06-14T08:00:45;102059.38;;;22.19;73.39
75933;BME280;64803;52.356;5.310;2023-06-14T08:03:12;102054.53;;;22.21;70.01
75933;BME280;64803;52.356;5.310;2023-06-14T08:05:38;102055.72;;;22.25;70.81
75933;BME280;64803;52.356;5.310;2023-06-14T08:08:04;102060.00;;;22.39;65.40
75933;BME280;64803;52.356;5.310;2023-06-14T08:10:30;102048.44;;;22.37;64.91
75933;BME280;64803;52.356;5.310;2023-06-14T08:12:56;102063.50;;;22.46;64.15
75933;BME280;64803;52.356;5.310;2023-06-14T08:15:22;102070.03;;;22.27;61.78
75933;BME280;64803;52.356;5.310;2023-06-14T08:17:48;102058.41;;;22.31;65.08
75933;BME280;64803;52.356;5.310;2023-06-14T08:20:14;102066.34;;;22.40;65.77
75933;BME280;64803;52.356;5.310;2023-06-14T08:22:42;102068.91;;;22.59;70.47
75933;BME280;64803;52.356;5.310;2023-06-14T08:25:09;102060.69;;;22.59;58.36
75933;BME280;64803;52.356;5.310;2023-06-14T08:27:35;102067.16;;;22.65;59.63
75933;BME280;64803;52.356;5.310;2023-06-14T08:30:02;102067.53;;;22.68;63.31
75933;BME280;64803;52.356;5.310;2023-06-14T08:32:28;102064.94;;;22.73;58.95
75933;BME280;64803;52.356;5.310;2023-06-14T08:34:54;102068.72;;;22.72;57.24
75933;BME280;64803;52.356;5.310;2023-06-14T08:37:20;102058.00;;;22.71;56.60
75933;BME280;64803;52.356;5.310;2023-06-14T08:39:46;102055.81;;;22.79;60.57
75933;BME280;64803;52.356;5.310;2023-06-14T08:42:14;102064.16;;;23.02;57.29
75933;BME280;64803;52.356;5.310;2023-06-14T08:44:40;102065.66;;;23.16;57.36
75933;BME280;64803;52.356;5.310;2023-06-14T08:47:07;102063.50;;;23.36;56.79
75933;BME280;64803;52.356;5.310;2023-06-14T08:49:36;102057.38;;;23.53;57.11
75933;BME280;64803;52.356;5.310;2023-06-14T08:52:05;102021.63;;;23.29;53.41
75933;BME280;64803;52.356;5.310;2023-06-14T08:54:33;102060.72;;;23.66;55.96
75933;BME280;64803;52.356;5.310;2023-06-14T08:57:04;102059.56;;;23.74;52.64
75933;BME280;64803;52.356;5.310;2023-06-14T08:59:33;102061.84;;;23.77;50.24
75933;BME280;64803;52.356;5.310;2023-06-14T09:02:05;102054.88;;;23.63;51.92
75933;BME280;64803;52.356;5.310;2023-06-14T09:04:32;102070.66;;;23.79;49.37
75933;BME280;64803;52.356;5.310;2023-06-14T09:06:59;102063.16;;;23.74;49.22
75933;BME280;64803;52.356;5.310;2023-06-14T09:09:25;102072.56;;;23.67;49.38
75933;BME280;64803;52.356;5.310;2023-06-14T09:11:54;102069.34;;;23.70;49.05
75933;BME280;64803;52.356;5.310;2023-06-14T09:14:24;102053.97;;;23.80;51.04
75933;BME280;64803;52.356;5.310;2023-06-14T09:16:54;102067.50;;;23.93;49.92
75933;BME280;64803;52.356;5.310;2023-06-14T09:19:24;102068.59;;;24.04;50.38
75933;BME280;64803;52.356;5.310;2023-06-14T09:21:50;102072.69;;;24.13;49.15
75933;BME280;64803;52.356;5.310;2023-06-14T09:24:19;102077.28;;;24.01;48.08
75933;BME280;64803;52.356;5.310;2023-06-14T09:26:48;102076.53;;;23.94;48.22
75933;BME280;64803;52.356;5.310;2023-06-14T09:29:16;102077.38;;;23.83;48.72
75933;BME280;64803;52.356;5.310;2023-06-14T09:31:42;102070.91;;;23.77;49.87
75933;BME280;64803;52.356;5.310;2023-06-14T09:34:09;102070.00;;;23.95;51.85
75933;BME280;64803;52.356;5.310;2023-06-14T09:36:35;102071.47;;;24.09;48.59
75933;BME280;64803;52.356;5.310;2023-06-14T09:39:02;102070.88;;;24.07;48.14
75933;BME280;64803;52.356;5.310;2023-06-14T09:44:00;102081.53;;;23.85;50.24
75933;BME280;64803;52.356;5.310;2023-06-14T09:46:29;102080.31;;;24.11;50.55
75933;BME280;64803;52.356;5.310;2023-06-14T09:48:59;102058.03;;;23.78;48.21
75933;BME280;64803;52.356;5.310;2023-06-14T09:51:27;102076.50;;;23.71;47.82
75933;BME280;64803;52.356;5.310;2023-06-14T09:54:01;102077.44;;;23.65;50.50
75933;BME280;64803;52.356;5.310;2023-06-14T09:56:28;102067.59;;;23.87;51.98
75933;BME280;64803;52.356;5.310;2023-06-14T09:58:59;102078.06;;;24.19;48.44
75933;BME280;64803;52.356;5.310;2023-06-14T10:01:26;102072.19;;;24.27;48.75
75933;BME280;64803;52.356;5.310;2023-06-14T10:04:03;102074.34;;;24.14;46.58
75933;BME280;64803;52.356;5.310;2023-06-14T10:06:30;102071.81;;;24.24;50.98
75933;BME280;64803;52.356;5.310;2023-06-14T10:08:58;102077.00;;;23.91;46.20
75933;BME280;64803;52.356;5.310;2023-06-14T10:11:27;102070.88;;;24.07;46.16
75933;BME280;64803;52.356;5.310;2023-06-14T10:13:55;102066.56;;;23.99;43.36
75933;BME280;64803;52.356;5.310;2023-06-14T10:16:27;102071.00;;;24.00;47.08
75933;BME280;64803;52.356;5.310;2023-06-14T10:22:11;102070.63;;;24.08;50.22
75933;BME280;64803;52.356;5.310;2023-06-14T10:24:44;102072.41;;;24.37;46.93
75933;BME280;64803;52.356;5.310;2023-06-14T10:27:13;102070.75;;;24.02;43.10
75933;BME280;64803;52.356;5.310;2023-06-14T10:32:24;102066.47;;;24.29;45.30
75933;BME280;64803;52.356;5.310;2023-06-14T10:34:56;102062.63;;;24.53;44.43
75933;BME280;64803;52.356;5.310;2023-06-14T10:37:23;102062.75;;;24.70;44.59
75933;BME280;64803;52.356;5.310;2023-06-14T10:39:53;102073.59;;;24.53;42.53
75933;BME280;64803;52.356;5.310;2023-06-14T10:42:19;102060.47;;;24.55;45.12
75933;BME280;64803;52.356;5.310;2023-06-14T10:44:50;102068.72;;;24.67;44.94
75933;BME280;64803;52.356;5.310;2023-06-14T10:50:09;102058.69;;;24.37;43.91
75933;BME280;64803;52.356;5.310;2023-06-14T10:52:41;102060.97;;;24.52;45.24
75933;BME280;64803;52.356;5.310;2023-06-14T10:55:08;102065.94;;;24.90;45.93
75933;BME280;64803;52.356;5.310;2023-06-14T10:57:44;102070.31;;;25.02;43.33
75933;BME280;64803;52.356;5.310;2023-06-14T11:00:12;102060.81;;;25.21;46.46
75933;BME280;64803;52.356;5.310;2023-06-14T11:03:10;102065.44;;;25.61;42.17
75933;BME280;64803;52.356;5.310;2023-06-14T11:11:10;102059.13;;;24.92;40.53
75933;BME280;64803;52.356;5.310;2023-06-14T11:13:44;102052.47;;;24.65;41.70
75933;BME280;64803;52.356;5.310;2023-06-14T11:16:11;102064.56;;;24.76;42.16
75933;BME280;64803;52.356;5.310;2023-06-14T11:18:38;102043.22;;;24.94;40.90
75933;BME280;64803;52.356;5.310;2023-06-14T11:21:04;102044.81;;;24.79;41.70
75933;BME280;64803;52.356;5.310;2023-06-14T11:23:30;102059.06;;;25.04;44.57
75933;BME280;64803;52.356;5.310;2023-06-14T11:25:56;102059.00;;;25.27;42.78
75933;BME280;64803;52.356;5.310;2023-06-14T11:28:22;102057.34;;;24.86;40.24
75933;BME280;64803;52.356;5.310;2023-06-14T11:31:00;102053.81;;;24.51;40.95
75933;BME280;64803;52.356;5.310;2023-06-14T11:33:26;102059.53;;;24.38;41.56
75933;BME280;64803;52.356;5.310;2023-06-14T11:35:52;102043.19;;;24.55;41.24
75933;BME280;64803;52.356;5.310;2023-06-14T11:38:18;102042.72;;;25.09;43.78
75933;BME280;64803;52.356;5.310;2023-06-14T11:40:44;102048.66;;;25.17;40.06
75933;BME280;64803;52.356;5.310;2023-06-14T11:43:10;102050.81;;;25.15;39.43
75933;BME280;64803;52.356;5.310;2023-06-14T11:45:36;102040.69;;;25.04;39.93
75933;BME280;64803;52.356;5.310;2023-06-14T11:48:02;102042.78;;;24.74;40.19
75933;BME280;64803;52.356;5.310;2023-06-14T11:50:28;102037.56;;;24.38;43.08
75933;BME280;64803;52.356;5.310;2023-06-14T11:52:56;102035.91;;;25.00;45.25
75933;BME280;64803;52.356;5.310;2023-06-14T11:55:23;102034.34;;;25.32;43.71
75933;BME280;64803;52.356;5.310;2023-06-14T11:57:58;102034.41;;;25.65;41.46
75933;BME280;64803;52.356;5.310;2023-06-14T12:00:27;102032.78;;;25.64;41.29
75933;BME280;64803;52.356;5.310;2023-06-14T12:02:54;102051.78;;;25.66;39.69
75933;BME280;64803;52.356;5.310;2023-06-14T12:05:24;102056.69;;;25.07;40.85
75933;BME280;64803;52.356;5.310;2023-06-14T12:07:50;102049.69;;;24.88;40.49
75933;BME280;64803;52.356;5.310;2023-06-14T12:10:19;102031.53;;;24.87;41.51
75933;BME280;64803;52.356;5.310;2023-06-14T12:12:45;102044.13;;;25.11;41.00
75933;BME280;64803;52.356;5.310;2023-06-14T12:15:11;102022.19;;;25.00;40.50
75933;BME280;64803;52.356;5.310;2023-06-14T12:17:38;102044.75;;;25.41;39.30
75933;BME280;64803;52.356;5.310;2023-06-14T12:20:12;102046.63;;;26.02;39.83
75933;BME280;64803;52.356;5.310;2023-06-14T12:23:03;102052.19;;;25.74;38.62
75933;BME280;64803;52.356;5.310;2023-06-14T12:25:33;102052.06;;;25.52;39.15
75933;BME280;64803;52.356;5.310;2023-06-14T12:28:06;102046.38;;;25.14;38.95
75933;BME280;64803;52.356;5.310;2023-06-14T12:30:32;102053.09;;;25.46;40.10
75933;BME280;64803;52.356;5.310;2023-06-14T12:32:58;102048.53;;;26.02;39.48
75933;BME280;64803;52.356;5.310;2023-06-14T12:35:24;102052.03;;;25.81;37.78
75933;BME280;64803;52.356;5.310;2023-06-14T12:37:51;102057.59;;;25.52;40.32
75933;BME280;64803;52.356;5.310;2023-06-14T12:40:17;102040.44;;;25.79;39.18
75933;BME280;64803;52.356;5.310;2023-06-14T12:42:44;102048.06;;;26.05;38.55
75933;BME280;64803;52.356;5.310;2023-06-14T12:45:10;102036.78;;;25.90;38.53
75933;BME280;64803;52.356;5.310;2023-06-14T12:47:36;102044.19;;;25.73;37.31
75933;BME280;64803;52.356;5.310;2023-06-14T12:50:03;102038.63;;;26.01;37.80
75933;BME280;64803;52.356;5.310;2023-06-14T12:52:29;102039.41;;;26.34;39.45
75933;BME280;64803;52.356;5.310;2023-06-14T12:54:54;102033.38;;;26.54;37.12
75933;BME280;64803;52.356;5.310;2023-06-14T12:57:20;102040.34;;;26.78;37.34
75933;BME280;64803;52.356;5.310;2023-06-14T12:59:46;102040.47;;;26.88;37.05
75933;BME280;64803;52.356;5.310;2023-06-14T13:02:14;102026.09;;;27.08;37.90
75933;BME280;64803;52.356;5.310;2023-06-14T13:04:41;102030.94;;;27.22;37.15
75933;BME280;64803;52.356;5.310;2023-06-14T13:07:07;102036.09;;;27.14;34.13